sensor_id;sensor_type;location;lat;lon;timestamp;P1;durP1;ratioP1;P2;durP2;ratioP2
69627;SDS011;56850;51.984;5.088;2023-01-24T00:00:49;17.53;;;12.00;;
69627;SDS011;56850;51.984;5.088;2023-01-24T00:03:16;18.27;;;11.75;;
69627;SDS011;56850;51.984;5.088;2023-01-24T00:05:44;19.15;;;12.00;;
69627;SDS011;56850;51.984;5.088;2023-01-24T00:08:13;19.48;;;12.45;;
69627;SDS011;56850;51.984;5.088;2023-01-24T00:10:44;19.63;;;12.40;;
69627;SDS011;56850;51.984;5.088;2023-01-24T00:13:12;18.60;;;11.83;;
69627;SDS011;56850;51.984;5.088;2023-01-24T00:15:39;19.52;;;12.55;;
69627;SDS011;56850;51.984;5.088;2023-01-24T00:18:07;18.33;;;11.95;;
69627;SDS011;56850;51.984;5.088;2023-01-24T00:20:34;18.90;;;12.25;;
69627;SDS011;56850;51.984;5.088;2023-01-24T00:23:01;17.65;;;12.15;;
69627;SDS011;56850;51.984;5.088;2023-01-24T00:25:28;16.53;;;11.23;;
69627;SDS011;56850;51.984;5.088;2023-01-24T00:27:54;18.02;;;12.00;;
69627;SDS011;56850;51.984;5.088;2023-01-24T00:30:22;18.10;;;12.40;;
69627;SDS011;56850;51.984;5.088;2023-01-24T00:32:50;17.20;;;11.50;;
69627;SDS011;56850;51.984;5.088;2023-01-24T00:35:16;21.65;;;13.45;;
69627;SDS011;56850;51.984;5.088;2023-01-24T00:37:43;17.97;;;12.23;;
69627;SDS011;56850;51.984;5.088;2023-01-24T00:40:10;17.77;;;11.88;;
69627;SDS011;56850;51.984;5.088;2023-01-24T00:42:37;19.15;;;12.05;;
69627;SDS011;56850;51.984;5.088;2023-01-24T00:45:05;18.88;;;12.02;;
69627;SDS011;56850;51.984;5.088;2023-01-24T00:47:32;16.63;;;11.32;;
69627;SDS011;56850;51.984;5.088;2023-01-24T00:49:59;16.80;;;11.30;;
69627;SDS011;56850;51.984;5.088;2023-01-24T00:52:26;16.48;;;11.57;;
69627;SDS011;56850;51.984;5.088;2023-01-24T00:54:54;17.15;;;11.55;;
69627;SDS011;56850;51.984;5.088;2023-01-24T00:57:22;17.13;;;10.77;;
69627;SDS011;56850;51.984;5.088;2023-01-24T00:59:50;19.15;;;12.85;;
69627;SDS011;56850;51.984;5.088;2023-01-24T01:02:17;19.63;;;12.43;;
69627;SDS011;56850;51.984;5.088;2023-01-24T01:04:45;17.85;;;11.90;;
69627;SDS011;56850;51.984;5.088;2023-01-24T01:07:13;17.33;;;11.25;;
69627;SDS011;56850;51.984;5.088;2023-01-24T01:09:40;16.58;;;11.10;;
69627;SDS011;56850;51.984;5.088;2023-01-24T01:12:07;15.98;;;11.45;;
69627;SDS011;56850;51.984;5.088;2023-01-24T01:14:34;17.63;;;11.90;;
69627;SDS011;56850;51.984;5.088;2023-01-24T01:17:02;16.63;;;11.85;;
69627;SDS011;56850;51.984;5.088;2023-01-24T01:19:29;16.17;;;11.60;;
69627;SDS011;56850;51.984;5.088;2023-01-24T01:21:56;17.75;;;11.82;;
69627;SDS011;56850;51.984;5.088;2023-01-24T01:24:24;17.52;;;11.20;;
69627;SDS011;56850;51.984;5.088;2023-01-24T01:26:51;18.03;;;11.30;;
69627;SDS011;56850;51.984;5.088;2023-01-24T01:29:18;15.43;;;11.20;;
69627;SDS011;56850;51.984;5.088;2023-01-24T01:31:47;16.10;;;11.38;;
69627;SDS011;56850;51.984;5.088;2023-01-24T01:34:14;14.88;;;10.30;;
69627;SDS011;56850;51.984;5.088;2023-01-24T01:36:42;18.85;;;12.15;;
69627;SDS011;56850;51.984;5.088;2023-01-24T01:39:09;17.23;;;10.87;;
69627;SDS011;56850;51.984;5.088;2023-01-24T01:41:36;17.85;;;12.10;;
69627;SDS011;56850;51.984;5.088;2023-01-24T01:44:17;16.83;;;11.40;;
69627;SDS011;56850;51.984;5.088;2023-01-24T01:47:26;16.88;;;11.07;;
69627;SDS011;56850;51.984;5.088;2023-01-24T01:50:02;19.38;;;11.77;;
69627;SDS011;56850;51.984;5.088;2023-01-24T01:52:50;18.13;;;11.80;;
69627;SDS011;56850;51.984;5.088;2023-01-24T01:55:18;17.20;;;10.32;;
69627;SDS011;56850;51.984;5.088;2023-01-24T01:57:49;16.85;;;11.63;;
69627;SDS011;56850;51.984;5.088;2023-01-24T02:00:20;17.45;;;11.02;;
69627;SDS011;56850;51.984;5.088;2023-01-24T02:03:00;20.48;;;12.45;;
69627;SDS011;56850;51.984;5.088;2023-01-24T02:05:58;17.53;;;11.47;;
69627;SDS011;56850;51.984;5.088;2023-01-24T02:08:25;17.48;;;11.93;;
69627;SDS011;56850;51.984;5.088;2023-01-24T02:10:54;18.75;;;12.57;;
69627;SDS011;56850;51.984;5.088;2023-01-24T02:13:42;17.30;;;11.50;;
69627;SDS011;56850;51.984;5.088;2023-01-24T02:16:10;18.15;;;11.63;;
69627;SDS011;56850;51.984;5.088;2023-01-24T02:18:40;18.50;;;11.70;;
69627;SDS011;56850;51.984;5.088;2023-01-24T02:21:13;14.25;;;9.05;;
69627;SDS011;56850;51.984;5.088;2023-01-24T02:23:59;19.20;;;12.15;;
69627;SDS011;56850;51.984;5.088;2023-01-24T02:26:33;16.88;;;10.15;;
69627;SDS011;56850;51.984;5.088;2023-01-24T02:29:04;18.33;;;11.80;;
69627;SDS011;56850;51.984;5.088;2023-01-24T02:31:52;18.50;;;11.53;;
69627;SDS011;56850;51.984;5.088;2023-01-24T02:34:25;16.50;;;10.43;;
69627;SDS011;56850;51.984;5.088;2023-01-24T02:36:54;19.13;;;12.45;;
69627;SDS011;56850;51.984;5.088;2023-01-24T02:42:35;16.75;;;10.82;;
69627;SDS011;56850;51.984;5.088;2023-01-24T02:45:14;15.43;;;10.43;;
69627;SDS011;56850;51.984;5.088;2023-01-24T02:47:47;16.25;;;11.13;;
69627;SDS011;56850;51.984;5.088;2023-01-24T02:50:17;16.02;;;10.57;;
69627;SDS011;56850;51.984;5.088;2023-01-24T02:52:45;17.17;;;9.95;;
69627;SDS011;56850;51.984;5.088;2023-01-24T02:55:31;16.02;;;10.85;;
69627;SDS011;56850;51.984;5.088;2023-01-24T02:57:59;14.63;;;9.17;;
69627;SDS011;56850;51.984;5.088;2023-01-24T03:00:35;17.10;;;9.85;;
69627;SDS011;56850;51.984;5.088;2023-01-24T03:03:04;16.92;;;10.65;;
69627;SDS011;56850;51.984;5.088;2023-01-24T03:05:32;16.55;;;10.55;;
69627;SDS011;56850;51.984;5.088;2023-01-24T03:08:15;18.73;;;11.45;;
69627;SDS011;56850;51.984;5.088;2023-01-24T03:10:42;18.20;;;10.97;;
69627;SDS011;56850;51.984;5.088;2023-01-24T03:13:14;16.25;;;8.25;;
69627;SDS011;56850;51.984;5.088;2023-01-24T03:16:03;17.80;;;10.90;;
69627;SDS011;56850;51.984;5.088;2023-01-24T03:18:49;13.80;;;8.05;;
69627;SDS011;56850;51.984;5.088;2023-01-24T03:21:35;17.13;;;10.15;;
69627;SDS011;56850;51.984;5.088;2023-01-24T03:24:22;16.57;;;10.17;;
69627;SDS011;56850;51.984;5.088;2023-01-24T03:27:09;16.65;;;10.77;;
69627;SDS011;56850;51.984;5.088;2023-01-24T03:29:56;16.92;;;10.73;;
69627;SDS011;56850;51.984;5.088;2023-01-24T03:32:41;18.42;;;11.63;;
69627;SDS011;56850;51.984;5.088;2023-01-24T03:35:28;15.45;;;9.98;;
69627;SDS011;56850;51.984;5.088;2023-01-24T03:37:55;16.80;;;10.27;;
69627;SDS011;56850;51.984;5.088;2023-01-24T03:40:41;17.30;;;10.55;;
69627;SDS011;56850;51.984;5.088;2023-01-24T03:43:09;16.48;;;11.10;;
69627;SDS011;56850;51.984;5.088;2023-01-24T03:45:38;14.50;;;9.70;;
69627;SDS011;56850;51.984;5.088;2023-01-24T03:48:14;17.38;;;11.30;;
69627;SDS011;56850;51.984;5.088;2023-01-24T03:50:42;16.87;;;10.10;;
69627;SDS011;56850;51.984;5.088;2023-01-24T03:53:33;16.27;;;9.77;;
69627;SDS011;56850;51.984;5.088;2023-01-24T03:56:01;17.40;;;10.68;;
69627;SDS011;56850;51.984;5.088;2023-01-24T03:58:37;14.55;;;8.93;;
69627;SDS011;56850;51.984;5.088;2023-01-24T04:01:07;20.25;;;11.63;;
69627;SDS011;56850;51.984;5.088;2023-01-24T04:03:55;18.93;;;11.13;;
69627;SDS011;56850;51.984;5.088;2023-01-24T04:06:22;17.17;;;9.95;;
69627;SDS011;56850;51.984;5.088;2023-01-24T04:08:50;17.10;;;11.25;;
69627;SDS011;56850;51.984;5.088;2023-01-24T04:11:18;14.30;;;8.48;;
69627;SDS011;56850;51.984;5.088;2023-01-24T04:13:49;17.40;;;10.27;;
69627;SDS011;56850;51.984;5.088;2023-01-24T04:16:16;17.80;;;11.53;;
69627;SDS011;56850;51.984;5.088;2023-01-24T04:19:09;19.63;;;11.35;;
69627;SDS011;56850;51.984;5.088;2023-01-24T04:21:36;19.75;;;9.82;;
69627;SDS011;56850;51.984;5.088;2023-01-24T04:24:02;17.13;;;10.75;;
69627;SDS011;56850;51.984;5.088;2023-01-24T04:26:32;19.35;;;11.38;;
69627;SDS011;56850;51.984;5.088;2023-01-24T04:29:00;18.67;;;11.37;;
69627;SDS011;56850;51.984;5.088;2023-01-24T04:31:27;18.35;;;11.52;;
69627;SDS011;56850;51.984;5.088;2023-01-24T04:34:06;20.40;;;12.45;;
69627;SDS011;56850;51.984;5.088;2023-01-24T04:36:36;18.25;;;11.68;;
69627;SDS011;56850;51.984;5.088;2023-01-24T04:39:03;18.80;;;11.13;;
69627;SDS011;56850;51.984;5.088;2023-01-24T04:41:37;15.83;;;9.80;;
69627;SDS011;56850;51.984;5.088;2023-01-24T04:44:04;16.85;;;10.60;;
69627;SDS011;56850;51.984;5.088;2023-01-24T04:46:31;18.25;;;11.32;;
69627;SDS011;56850;51.984;5.088;2023-01-24T04:48:58;17.60;;;11.20;;
69627;SDS011;56850;51.984;5.088;2023-01-24T04:51:34;17.27;;;10.85;;
69627;SDS011;56850;51.984;5.088;2023-01-24T04:54:04;19.63;;;11.10;;
69627;SDS011;56850;51.984;5.088;2023-01-24T04:56:31;18.65;;;11.23;;
69627;SDS011;56850;51.984;5.088;2023-01-24T04:58:58;15.45;;;10.05;;
69627;SDS011;56850;51.984;5.088;2023-01-24T05:01:25;17.35;;;10.32;;
69627;SDS011;56850;51.984;5.088;2023-01-24T05:04:02;18.25;;;11.20;;
69627;SDS011;56850;51.984;5.088;2023-01-24T05:06:30;17.70;;;10.20;;
69627;SDS011;56850;51.984;5.088;2023-01-24T05:08:58;17.20;;;10.60;;
69627;SDS011;56850;51.984;5.088;2023-01-24T05:11:34;19.20;;;11.38;;
69627;SDS011;56850;51.984;5.088;2023-01-24T05:14:03;17.13;;;9.85;;
69627;SDS011;56850;51.984;5.088;2023-01-24T05:16:30;17.45;;;10.55;;
69627;SDS011;56850;51.984;5.088;2023-01-24T05:18:57;18.53;;;10.53;;
69627;SDS011;56850;51.984;5.088;2023-01-24T05:21:25;17.42;;;11.45;;
69627;SDS011;56850;51.984;5.088;2023-01-24T05:23:52;19.45;;;11.98;;
69627;SDS011;56850;51.984;5.088;2023-01-24T05:26:22;17.48;;;11.18;;
69627;SDS011;56850;51.984;5.088;2023-01-24T05:28:51;19.38;;;10.68;;
69627;SDS011;56850;51.984;5.088;2023-01-24T05:31:19;18.13;;;11.63;;
69627;SDS011;56850;51.984;5.088;2023-01-24T05:33:47;18.63;;;11.30;;
69627;SDS011;56850;51.984;5.088;2023-01-24T05:36:16;15.35;;;8.50;;
69627;SDS011;56850;51.984;5.088;2023-01-24T05:38:45;18.80;;;11.73;;
69627;SDS011;56850;51.984;5.088;2023-01-24T05:41:14;17.83;;;10.98;;
69627;SDS011;56850;51.984;5.088;2023-01-24T05:43:43;18.90;;;10.97;;
69627;SDS011;56850;51.984;5.088;2023-01-24T05:46:12;18.88;;;10.80;;
69627;SDS011;56850;51.984;5.088;2023-01-24T05:48:48;19.48;;;11.77;;
69627;SDS011;56850;51.984;5.088;2023-01-24T05:51:17;18.35;;;12.23;;
69627;SDS011;56850;51.984;5.088;2023-01-24T05:53:48;19.85;;;12.43;;
69627;SDS011;56850;51.984;5.088;2023-01-24T05:56:35;18.23;;;11.70;;
69627;SDS011;56850;51.984;5.088;2023-01-24T05:59:02;18.40;;;12.38;;
69627;SDS011;56850;51.984;5.088;2023-01-24T06:01:29;19.92;;;12.57;;
69627;SDS011;56850;51.984;5.088;2023-01-24T06:03:56;18.90;;;11.63;;
69627;SDS011;56850;51.984;5.088;2023-01-24T06:06:26;20.05;;;12.18;;
69627;SDS011;56850;51.984;5.088;2023-01-24T06:08:53;19.40;;;13.10;;
69627;SDS011;56850;51.984;5.088;2023-01-24T06:11:22;20.73;;;11.70;;
69627;SDS011;56850;51.984;5.088;2023-01-24T06:14:02;15.15;;;8.85;;
69627;SDS011;56850;51.984;5.088;2023-01-24T06:16:30;20.98;;;13.20;;
69627;SDS011;56850;51.984;5.088;2023-01-24T06:18:57;22.83;;;13.85;;
69627;SDS011;56850;51.984;5.088;2023-01-24T06:24:20;19.58;;;12.07;;
69627;SDS011;56850;51.984;5.088;2023-01-24T06:27:13;23.25;;;13.38;;
69627;SDS011;56850;51.984;5.088;2023-01-24T06:29:40;17.67;;;10.70;;
69627;SDS011;56850;51.984;5.088;2023-01-24T06:40:12;21.75;;;14.40;;
69627;SDS011;56850;51.984;5.088;2023-01-24T06:42:41;25.02;;;14.15;;
69627;SDS011;56850;51.984;5.088;2023-01-24T06:45:08;22.20;;;14.23;;
69627;SDS011;56850;51.984;5.088;2023-01-24T06:47:36;22.30;;;13.70;;
69627;SDS011;56850;51.984;5.088;2023-01-24T06:50:03;20.77;;;12.13;;
69627;SDS011;56850;51.984;5.088;2023-01-24T06:52:32;25.33;;;15.02;;
69627;SDS011;56850;51.984;5.088;2023-01-24T06:54:59;23.63;;;13.88;;
69627;SDS011;56850;51.984;5.088;2023-01-24T06:57:27;21.73;;;13.70;;
69627;SDS011;56850;51.984;5.088;2023-01-24T06:59:54;21.87;;;13.37;;
69627;SDS011;56850;51.984;5.088;2023-01-24T07:02:21;23.65;;;14.23;;
69627;SDS011;56850;51.984;5.088;2023-01-24T07:04:48;22.23;;;13.05;;
69627;SDS011;56850;51.984;5.088;2023-01-24T07:07:15;25.65;;;14.43;;
69627;SDS011;56850;51.984;5.088;2023-01-24T07:09:42;25.17;;;15.00;;
69627;SDS011;56850;51.984;5.088;2023-01-24T07:12:12;24.20;;;14.30;;
69627;SDS011;56850;51.984;5.088;2023-01-24T07:14:39;24.88;;;14.45;;
69627;SDS011;56850;51.984;5.088;2023-01-24T07:17:05;27.55;;;15.55;;
69627;SDS011;56850;51.984;5.088;2023-01-24T07:19:33;24.52;;;14.25;;
69627;SDS011;56850;51.984;5.088;2023-01-24T07:22:00;24.42;;;14.18;;
69627;SDS011;56850;51.984;5.088;2023-01-24T07:24:28;24.57;;;13.97;;
69627;SDS011;56850;51.984;5.088;2023-01-24T07:26:56;24.95;;;14.95;;
69627;SDS011;56850;51.984;5.088;2023-01-24T07:29:23;28.45;;;15.82;;
69627;SDS011;56850;51.984;5.088;2023-01-24T07:31:50;26.50;;;15.40;;
69627;SDS011;56850;51.984;5.088;2023-01-24T07:34:19;25.85;;;15.80;;
69627;SDS011;56850;51.984;5.088;2023-01-24T07:36:47;24.23;;;14.47;;
69627;SDS011;56850;51.984;5.088;2023-01-24T07:39:14;26.15;;;14.70;;
69627;SDS011;56850;51.984;5.088;2023-01-24T07:41:41;28.52;;;16.13;;
69627;SDS011;56850;51.984;5.088;2023-01-24T07:44:11;25.67;;;14.38;;
69627;SDS011;56850;51.984;5.088;2023-01-24T07:46:38;26.95;;;16.05;;
69627;SDS011;56850;51.984;5.088;2023-01-24T07:49:06;25.53;;;14.67;;
69627;SDS011;56850;51.984;5.088;2023-01-24T07:51:33;23.67;;;14.10;;
69627;SDS011;56850;51.984;5.088;2023-01-24T07:53:59;26.17;;;15.88;;
69627;SDS011;56850;51.984;5.088;2023-01-24T07:56:27;25.40;;;15.18;;
69627;SDS011;56850;51.984;5.088;2023-01-24T07:58:54;26.50;;;15.20;;
69627;SDS011;56850;51.984;5.088;2023-01-24T08:01:22;25.77;;;14.40;;
69627;SDS011;56850;51.984;5.088;2023-01-24T08:03:50;26.20;;;15.48;;
69627;SDS011;56850;51.984;5.088;2023-01-24T08:06:21;28.17;;;15.80;;
69627;SDS011;56850;51.984;5.088;2023-01-24T08:08:49;22.40;;;12.68;;
69627;SDS011;56850;51.984;5.088;2023-01-24T08:11:16;24.45;;;14.43;;
69627;SDS011;56850;51.984;5.088;2023-01-24T08:13:44;27.03;;;14.80;;
69627;SDS011;56850;51.984;5.088;2023-01-24T08:16:11;22.90;;;14.35;;
69627;SDS011;56850;51.984;5.088;2023-01-24T08:18:40;28.15;;;16.02;;
69627;SDS011;56850;51.984;5.088;2023-01-24T08:21:07;25.90;;;15.75;;
69627;SDS011;56850;51.984;5.088;2023-01-24T08:23:34;27.05;;;15.82;;
69627;SDS011;56850;51.984;5.088;2023-01-24T08:26:02;24.50;;;13.63;;
69627;SDS011;56850;51.984;5.088;2023-01-24T08:28:32;23.55;;;13.77;;
69627;SDS011;56850;51.984;5.088;2023-01-24T08:31:00;24.35;;;14.70;;
69627;SDS011;56850;51.984;5.088;2023-01-24T08:33:27;22.83;;;13.18;;
69627;SDS011;56850;51.984;5.088;2023-01-24T08:35:54;25.20;;;14.82;;
69627;SDS011;56850;51.984;5.088;2023-01-24T08:38:21;25.63;;;13.70;;
69627;SDS011;56850;51.984;5.088;2023-01-24T08:40:49;23.00;;;12.90;;
69627;SDS011;56850;51.984;5.088;2023-01-24T08:43:16;25.58;;;15.68;;
69627;SDS011;56850;51.984;5.088;2023-01-24T08:45:43;26.00;;;14.32;;
69627;SDS011;56850;51.984;5.088;2023-01-24T08:48:10;29.38;;;14.82;;
69627;SDS011;56850;51.984;5.088;2023-01-24T08:50:37;26.80;;;14.77;;
69627;SDS011;56850;51.984;5.088;2023-01-24T08:53:04;29.17;;;16.45;;
69627;SDS011;56850;51.984;5.088;2023-01-24T08:55:31;26.60;;;16.42;;
69627;SDS011;56850;51.984;5.088;2023-01-24T08:57:59;25.27;;;14.52;;
69627;SDS011;56850;51.984;5.088;2023-01-24T09:00:26;26.52;;;16.40;;
69627;SDS011;56850;51.984;5.088;2023-01-24T09:02:54;24.53;;;13.73;;
69627;SDS011;56850;51.984;5.088;2023-01-24T09:05:21;25.08;;;15.13;;
69627;SDS011;56850;51.984;5.088;2023-01-24T09:07:48;26.02;;;14.98;;
69627;SDS011;56850;51.984;5.088;2023-01-24T09:10:15;25.83;;;14.70;;
69627;SDS011;56850;51.984;5.088;2023-01-24T09:12:42;25.25;;;13.35;;
69627;SDS011;56850;51.984;5.088;2023-01-24T09:15:09;26.83;;;13.93;;
69627;SDS011;56850;51.984;5.088;2023-01-24T09:17:37;25.80;;;15.80;;
69627;SDS011;56850;51.984;5.088;2023-01-24T09:20:06;27.35;;;15.18;;
69627;SDS011;56850;51.984;5.088;2023-01-24T09:22:34;21.83;;;13.50;;
69627;SDS011;56850;51.984;5.088;2023-01-24T09:25:01;28.73;;;15.15;;
69627;SDS011;56850;51.984;5.088;2023-01-24T09:27:30;26.30;;;14.37;;
69627;SDS011;56850;51.984;5.088;2023-01-24T09:29:56;28.02;;;15.50;;
69627;SDS011;56850;51.984;5.088;2023-01-24T09:32:23;24.85;;;15.00;;
69627;SDS011;56850;51.984;5.088;2023-01-24T09:34:50;24.15;;;14.25;;
69627;SDS011;56850;51.984;5.088;2023-01-24T09:37:17;27.67;;;15.27;;
69627;SDS011;56850;51.984;5.088;2023-01-24T09:39:45;23.40;;;14.23;;
69627;SDS011;56850;51.984;5.088;2023-01-24T09:45:00;27.20;;;14.48;;
69627;SDS011;56850;51.984;5.088;2023-01-24T09:47:45;27.13;;;14.07;;
69627;SDS011;56850;51.984;5.088;2023-01-24T09:50:20;23.90;;;14.75;;
69627;SDS011;56850;51.984;5.088;2023-01-24T09:53:13;24.20;;;14.40;;
69627;SDS011;56850;51.984;5.088;2023-01-24T09:55:46;23.70;;;13.60;;
69627;SDS011;56850;51.984;5.088;2023-01-24T09:58:25;24.90;;;14.90;;
69627;SDS011;56850;51.984;5.088;2023-01-24T10:01:00;24.50;;;14.18;;
69627;SDS011;56850;51.984;5.088;2023-01-24T10:03:31;25.65;;;14.43;;
69627;SDS011;56850;51.984;5.088;2023-01-24T10:06:00;27.23;;;14.50;;
69627;SDS011;56850;51.984;5.088;2023-01-24T10:11:14;22.58;;;13.90;;
69627;SDS011;56850;51.984;5.088;2023-01-24T10:25:29;23.33;;;13.57;;
69627;SDS011;56850;51.984;5.088;2023-01-24T10:28:00;23.77;;;13.00;;
69627;SDS011;56850;51.984;5.088;2023-01-24T10:33:24;22.77;;;12.97;;
69627;SDS011;56850;51.984;5.088;2023-01-24T10:36:13;25.90;;;13.70;;
69627;SDS011;56850;51.984;5.088;2023-01-24T10:38:48;23.98;;;14.00;;
69627;SDS011;56850;51.984;5.088;2023-01-24T10:43:52;23.23;;;13.77;;
69627;SDS011;56850;51.984;5.088;2023-01-24T10:49:14;22.90;;;13.52;;
69627;SDS011;56850;51.984;5.088;2023-01-24T10:54:50;23.50;;;14.07;;
69627;SDS011;56850;51.984;5.088;2023-01-24T10:57:33;22.38;;;12.90;;
69627;SDS011;56850;51.984;5.088;2023-01-24T11:00:15;25.37;;;13.93;;
69627;SDS011;56850;51.984;5.088;2023-01-24T11:03:00;23.33;;;12.93;;
69627;SDS011;56850;51.984;5.088;2023-01-24T11:05:46;22.13;;;13.70;;
69627;SDS011;56850;51.984;5.088;2023-01-24T11:08:24;22.25;;;13.35;;
69627;SDS011;56850;51.984;5.088;2023-01-24T11:10:53;21.20;;;12.45;;
69627;SDS011;56850;51.984;5.088;2023-01-24T11:16:06;20.80;;;12.52;;
69627;SDS011;56850;51.984;5.088;2023-01-24T11:18:58;24.27;;;13.98;;
69627;SDS011;56850;51.984;5.088;2023-01-24T11:21:31;24.48;;;14.07;;
69627;SDS011;56850;51.984;5.088;2023-01-24T11:26:36;23.43;;;12.67;;
69627;SDS011;56850;51.984;5.088;2023-01-24T11:29:05;22.40;;;13.13;;
69627;SDS011;56850;51.984;5.088;2023-01-24T11:31:43;22.00;;;13.25;;
69627;SDS011;56850;51.984;5.088;2023-01-24T11:42:34;25.10;;;13.60;;
69627;SDS011;56850;51.984;5.088;2023-01-24T11:45:36;22.52;;;13.38;;
69627;SDS011;56850;51.984;5.088;2023-01-24T11:48:45;22.92;;;12.55;;
69627;SDS011;56850;51.984;5.088;2023-01-24T11:51:29;21.90;;;13.18;;
69627;SDS011;56850;51.984;5.088;2023-01-24T11:54:23;20.77;;;11.97;;
69627;SDS011;56850;51.984;5.088;2023-01-24T12:16:52;20.70;;;12.43;;
69627;SDS011;56850;51.984;5.088;2023-01-24T12:20:52;21.92;;;12.85;;
69627;SDS011;56850;51.984;5.088;2023-01-24T12:23:20;20.47;;;13.00;;
69627;SDS011;56850;51.984;5.088;2023-01-24T12:25:50;22.02;;;12.38;;
69627;SDS011;56850;51.984;5.088;2023-01-24T12:28:23;20.17;;;13.02;;
69627;SDS011;56850;51.984;5.088;2023-01-24T12:30:59;20.83;;;11.80;;
69627;SDS011;56850;51.984;5.088;2023-01-24T12:38:56;19.88;;;12.63;;
69627;SDS011;56850;51.984;5.088;2023-01-24T12:41:31;20.77;;;12.43;;
69627;SDS011;56850;51.984;5.088;2023-01-24T12:44:03;19.92;;;11.80;;
69627;SDS011;56850;51.984;5.088;2023-01-24T12:55:15;21.77;;;12.45;;
69627;SDS011;56850;51.984;5.088;2023-01-24T12:58:09;23.50;;;12.65;;
69627;SDS011;56850;51.984;5.088;2023-01-24T13:01:01;20.90;;;12.68;;
69627;SDS011;56850;51.984;5.088;2023-01-24T13:09:33;18.75;;;12.23;;
69627;SDS011;56850;51.984;5.088;2023-01-24T13:12:22;21.20;;;12.57;;
69627;SDS011;56850;51.984;5.088;2023-01-24T13:14:52;21.17;;;12.23;;
69627;SDS011;56850;51.984;5.088;2023-01-24T13:23:24;21.95;;;12.35;;
69627;SDS011;56850;51.984;5.088;2023-01-24T13:26:26;21.02;;;12.18;;
69627;SDS011;56850;51.984;5.088;2023-01-24T13:32:02;21.07;;;12.53;;
69627;SDS011;56850;51.984;5.088;2023-01-24T13:34:34;20.10;;;12.10;;
69627;SDS011;56850;51.984;5.088;2023-01-24T13:37:03;19.73;;;12.88;;
69627;SDS011;56850;51.984;5.088;2023-01-24T13:39:37;19.38;;;12.82;;
69627;SDS011;56850;51.984;5.088;2023-01-24T13:42:21;20.40;;;12.63;;
69627;SDS011;56850;51.984;5.088;2023-01-24T13:44:50;19.27;;;12.27;;
69627;SDS011;56850;51.984;5.088;2023-01-24T13:49:45;22.55;;;13.85;;
69627;SDS011;56850;51.984;5.088;2023-01-24T13:55:02;20.13;;;12.25;;
69627;SDS011;56850;51.984;5.088;2023-01-24T13:58:13;19.73;;;12.53;;
69627;SDS011;56850;51.984;5.088;2023-01-24T14:00:46;18.95;;;11.90;;
69627;SDS011;56850;51.984;5.088;2023-01-24T14:03:18;20.25;;;12.45;;
69627;SDS011;56850;51.984;5.088;2023-01-24T14:05:56;20.63;;;13.07;;
69627;SDS011;56850;51.984;5.088;2023-01-24T14:08:33;21.73;;;13.30;;
69627;SDS011;56850;51.984;5.088;2023-01-24T14:21:52;17.73;;;10.05;;
69627;SDS011;56850;51.984;5.088;2023-01-24T14:27:22;22.75;;;13.30;;
69627;SDS011;56850;51.984;5.088;2023-01-24T14:29:53;22.38;;;13.57;;
69627;SDS011;56850;51.984;5.088;2023-01-24T14:32:27;21.95;;;13.07;;
69627;SDS011;56850;51.984;5.088;2023-01-24T14:37:47;20.57;;;13.30;;
69627;SDS011;56850;51.984;5.088;2023-01-24T14:40:25;21.23;;;12.88;;
69627;SDS011;56850;51.984;5.088;2023-01-24T14:43:02;22.25;;;15.32;;
69627;SDS011;56850;51.984;5.088;2023-01-24T14:45:36;21.38;;;13.88;;
69627;SDS011;56850;51.984;5.088;2023-01-24T14:48:07;23.45;;;13.98;;
69627;SDS011;56850;51.984;5.088;2023-01-24T14:50:37;21.53;;;14.20;;
69627;SDS011;56850;51.984;5.088;2023-01-24T14:55:56;23.58;;;14.18;;
69627;SDS011;56850;51.984;5.088;2023-01-24T14:58:36;20.55;;;13.43;;
69627;SDS011;56850;51.984;5.088;2023-01-24T15:01:18;21.20;;;13.38;;
69627;SDS011;56850;51.984;5.088;2023-01-24T15:03:52;23.30;;;14.23;;
69627;SDS011;56850;51.984;5.088;2023-01-24T15:06:22;21.23;;;13.82;;
69627;SDS011;56850;51.984;5.088;2023-01-24T15:08:54;24.58;;;13.80;;
69627;SDS011;56850;51.984;5.088;2023-01-24T15:11:35;19.48;;;12.68;;
69627;SDS011;56850;51.984;5.088;2023-01-24T15:14:17;21.05;;;13.45;;
69627;SDS011;56850;51.984;5.088;2023-01-24T15:16:46;19.93;;;12.97;;
69627;SDS011;56850;51.984;5.088;2023-01-24T15:19:22;22.42;;;13.60;;
69627;SDS011;56850;51.984;5.088;2023-01-24T15:21:51;21.75;;;13.77;;
69627;SDS011;56850;51.984;5.088;2023-01-24T15:24:25;21.88;;;13.57;;
69627;SDS011;56850;51.984;5.088;2023-01-24T15:26:57;23.42;;;14.10;;
69627;SDS011;56850;51.984;5.088;2023-01-24T15:35:18;20.67;;;13.85;;
69627;SDS011;56850;51.984;5.088;2023-01-24T15:41:12;19.17;;;12.38;;
69627;SDS011;56850;51.984;5.088;2023-01-24T15:43:59;21.13;;;13.20;;
69627;SDS011;56850;51.984;5.088;2023-01-24T15:46:35;20.35;;;13.15;;
69627;SDS011;56850;51.984;5.088;2023-01-24T15:55:03;20.38;;;13.18;;
69627;SDS011;56850;51.984;5.088;2023-01-24T15:57:32;21.03;;;13.70;;
69627;SDS011;56850;51.984;5.088;2023-01-24T16:00:02;21.00;;;13.43;;
69627;SDS011;56850;51.984;5.088;2023-01-24T16:02:47;20.88;;;12.40;;
69627;SDS011;56850;51.984;5.088;2023-01-24T16:05:16;19.80;;;13.07;;
69627;SDS011;56850;51.984;5.088;2023-01-24T16:07:45;20.52;;;13.25;;
69627;SDS011;56850;51.984;5.088;2023-01-24T16:10:13;21.23;;;13.63;;
69627;SDS011;56850;51.984;5.088;2023-01-24T16:12:41;20.38;;;12.77;;
69627;SDS011;56850;51.984;5.088;2023-01-24T16:15:13;22.27;;;12.27;;
69627;SDS011;56850;51.984;5.088;2023-01-24T16:17:42;24.25;;;14.25;;
69627;SDS011;56850;51.984;5.088;2023-01-24T16:20:30;20.63;;;12.77;;
69627;SDS011;56850;51.984;5.088;2023-01-24T16:22:57;20.97;;;13.03;;
69627;SDS011;56850;51.984;5.088;2023-01-24T16:25:24;21.40;;;13.50;;
69627;SDS011;56850;51.984;5.088;2023-01-24T16:27:51;21.70;;;13.85;;
69627;SDS011;56850;51.984;5.088;2023-01-24T16:30:23;21.42;;;12.98;;
69627;SDS011;56850;51.984;5.088;2023-01-24T16:32:51;19.80;;;13.65;;
69627;SDS011;56850;51.984;5.088;2023-01-24T16:35:19;25.33;;;15.20;;
69627;SDS011;56850;51.984;5.088;2023-01-24T16:37:47;19.95;;;12.82;;
69627;SDS011;56850;51.984;5.088;2023-01-24T16:40:15;19.50;;;13.57;;
69627;SDS011;56850;51.984;5.088;2023-01-24T16:42:44;22.02;;;13.50;;
69627;SDS011;56850;51.984;5.088;2023-01-24T16:45:16;21.42;;;14.02;;
69627;SDS011;56850;51.984;5.088;2023-01-24T16:47:45;19.70;;;12.97;;
69627;SDS011;56850;51.984;5.088;2023-01-24T16:50:13;20.08;;;13.07;;
69627;SDS011;56850;51.984;5.088;2023-01-24T16:52:42;19.27;;;13.25;;
69627;SDS011;56850;51.984;5.088;2023-01-24T16:55:09;18.98;;;12.48;;
69627;SDS011;56850;51.984;5.088;2023-01-24T16:57:36;19.90;;;12.80;;
69627;SDS011;56850;51.984;5.088;2023-01-24T17:00:04;20.93;;;12.53;;
69627;SDS011;56850;51.984;5.088;2023-01-24T17:02:39;19.35;;;12.85;;
69627;SDS011;56850;51.984;5.088;2023-01-24T17:05:10;19.15;;;12.55;;
69627;SDS011;56850;51.984;5.088;2023-01-24T17:07:39;16.70;;;12.13;;
69627;SDS011;56850;51.984;5.088;2023-01-24T17:10:06;20.15;;;12.93;;
69627;SDS011;56850;51.984;5.088;2023-01-24T17:12:34;11.57;;;7.50;;
69627;SDS011;56850;51.984;5.088;2023-01-24T17:15:01;18.48;;;12.25;;